Nijmegen, Netherlands
Current Conditions -  °F | °C
As of 4:25 PM on Thursday 30 Oct 2014 (Local Time) from EHVK Reporting Station
Haze Haze  
Wind Chill: 61°   Ceiling: 11000
Heat Index: 61°   Visibility: 3mi
Dew Point: 57°   Wind: 6mph
Humidity: 88%   Direction: 170°S
Pressure: 30.15"   Gusts: NA
Location:  51.84°N, 5.85°E
Report Text: EHVK 301525Z AUTO 17005KT 5000 BR OVC110 16/14 Q1021 WHT
Loading
Personal Weather Stations






























Interactive Weather Map
Tropical Storm Tracking
New forecast layout! Learn more

10-Day Weather Forecast

Advertisements
Track Severe Weather on mobile